sensor_id;sensor_type;location;lat;lon;timestamp;pressure;altitude;pressure_sealevel;temperature;humidity
22389;BME280;11362;48.102;11.620;2022-09-27T00:00:36;93760.03;;;21.67;41.45
22389;BME280;11362;48.102;11.620;2022-09-27T00:03:01;93758.03;;;21.68;41.40
22389;BME280;11362;48.102;11.620;2022-09-27T00:05:27;93748.19;;;21.67;41.52
22389;BME280;11362;48.102;11.620;2022-09-27T00:07:52;93751.38;;;21.65;41.24
22389;BME280;11362;48.102;11.620;2022-09-27T00:10:17;93736.38;;;21.66;41.43
22389;BME280;11362;48.102;11.620;2022-09-27T00:12:43;93748.63;;;21.65;41.52
22389;BME280;11362;48.102;11.620;2022-09-27T00:15:08;93741.91;;;21.66;41.44
22389;BME280;11362;48.102;11.620;2022-09-27T00:17:34;93741.13;;;21.66;41.54
22389;BME280;11362;48.102;11.620;2022-09-27T00:19:59;93730.84;;;21.66;41.38
22389;BME280;11362;48.102;11.620;2022-09-27T00:22:25;93720.22;;;21.65;41.51
22389;BME280;11362;48.102;11.620;2022-09-27T00:24:51;93718.22;;;21.65;41.32
22389;BME280;11362;48.102;11.620;2022-09-27T00:27:17;93718.22;;;21.65;41.42
22389;BME280;11362;48.102;11.620;2022-09-27T00:29:44;93717.44;;;21.65;41.50
22389;BME280;11362;48.102;11.620;2022-09-27T00:32:09;93719.03;;;21.66;41.36
22389;BME280;11362;48.102;11.620;2022-09-27T00:34:35;93721.00;;;21.65;41.31
22389;BME280;11362;48.102;11.620;2022-09-27T00:37:00;93726.09;;;21.67;41.49
22389;BME280;11362;48.102;11.620;2022-09-27T00:39:25;93726.09;;;21.67;41.27
22389;BME280;11362;48.102;11.620;2022-09-27T00:41:51;93729.28;;;21.65;41.40
22389;BME280;11362;48.102;11.620;2022-09-27T00:47:21;93735.59;;;21.66;41.47
22389;BME280;11362;48.102;11.620;2022-09-27T00:55:14;93724.19;;;21.64;41.40
22389;BME280;11362;48.102;11.620;2022-09-27T00:57:43;93724.94;;;21.64;41.32
22389;BME280;11362;48.102;11.620;2022-09-27T01:00:11;93728.50;;;21.65;41.50
22389;BME280;11362;48.102;11.620;2022-09-27T01:02:39;93722.19;;;21.64;41.48
22389;BME280;11362;48.102;11.620;2022-09-27T01:05:07;93718.22;;;21.65;41.49
22389;BME280;11362;48.102;11.620;2022-09-27T01:07:33;93720.22;;;21.65;41.50
22389;BME280;11362;48.102;11.620;2022-09-27T01:09:58;93716.66;;;21.64;41.53
22389;BME280;11362;48.102;11.620;2022-09-27T01:12:40;93715.91;;;21.64;41.46
22389;BME280;11362;48.102;11.620;2022-09-27T01:15:19;93722.97;;;21.65;41.42
22389;BME280;11362;48.102;11.620;2022-09-27T01:20:54;93708.38;;;21.64;41.53
22389;BME280;11362;48.102;11.620;2022-09-27T01:27:01;93700.06;;;21.64;41.40
22389;BME280;11362;48.102;11.620;2022-09-27T01:29:36;93696.56;;;21.64;41.62
22389;BME280;11362;48.102;11.620;2022-09-27T01:39:56;93685.50;;;21.64;41.63
22389;BME280;11362;48.102;11.620;2022-09-27T01:42:30;93682.75;;;21.64;41.53
22389;BME280;11362;48.102;11.620;2022-09-27T01:45:06;93678.44;;;21.63;41.61
22389;BME280;11362;48.102;11.620;2022-09-27T01:47:41;93679.97;;;21.64;41.62
22389;BME280;11362;48.102;11.620;2022-09-27T01:50:13;93689.03;;;21.64;41.66
22389;BME280;11362;48.102;11.620;2022-09-27T01:52:50;93685.50;;;21.64;41.60
22389;BME280;11362;48.102;11.620;2022-09-27T01:55:19;93673.22;;;21.65;41.65
22389;BME280;11362;48.102;11.620;2022-09-27T01:57:51;93682.75;;;21.64;41.72
22389;BME280;11362;48.102;11.620;2022-09-27T02:00:19;93687.06;;;21.65;41.60
22389;BME280;11362;48.102;11.620;2022-09-27T02:02:48;93689.03;;;21.64;41.60
22389;BME280;11362;48.102;11.620;2022-09-27T02:05:16;93687.06;;;21.65;41.47
22389;BME280;11362;48.102;11.620;2022-09-27T02:07:47;93683.97;;;21.63;41.43
22389;BME280;11362;48.102;11.620;2022-09-27T02:10:18;93679.97;;;21.64;41.69
22389;BME280;11362;48.102;11.620;2022-09-27T02:12:55;93667.38;;;21.63;41.60
22389;BME280;11362;48.102;11.620;2022-09-27T02:15:23;93660.63;;;21.64;41.66
22389;BME280;11362;48.102;11.620;2022-09-27T02:18:01;93666.16;;;21.64;41.50
22389;BME280;11362;48.102;11.620;2022-09-27T02:20:44;93666.94;;;21.64;41.43
22389;BME280;11362;48.102;11.620;2022-09-27T02:23:39;93660.63;;;21.64;41.48
22389;BME280;11362;48.102;11.620;2022-09-27T02:26:26;93663.41;;;21.64;41.67
22389;BME280;11362;48.102;11.620;2022-09-27T02:29:09;93656.34;;;21.63;41.63
22389;BME280;11362;48.102;11.620;2022-09-27T02:31:35;93660.63;;;21.64;41.61
22389;BME280;11362;48.102;11.620;2022-09-27T02:34:05;93659.09;;;21.63;41.64
22389;BME280;11362;48.102;11.620;2022-09-27T02:36:32;93666.16;;;21.64;41.61
22389;BME280;11362;48.102;11.620;2022-09-27T02:38:57;93660.63;;;21.64;41.69
22389;BME280;11362;48.102;11.620;2022-09-27T02:41:23;93664.63;;;21.63;41.62
22389;BME280;11362;48.102;11.620;2022-09-27T02:43:54;93653.56;;;21.63;41.80
22389;BME280;11362;48.102;11.620;2022-09-27T02:54:58;93648.81;;;21.63;41.61
22389;BME280;11362;48.102;11.620;2022-09-27T03:00:35;93632.69;;;21.62;41.49
22389;BME280;11362;48.102;11.620;2022-09-27T03:03:07;93634.22;;;21.63;41.70
22389;BME280;11362;48.102;11.620;2022-09-27T03:06:07;93612.88;;;21.63;41.57
22389;BME280;11362;48.102;11.620;2022-09-27T03:08:36;93607.81;;;21.62;41.68
22389;BME280;11362;48.102;11.620;2022-09-27T03:11:01;93613.34;;;21.62;41.82
22389;BME280;11362;48.102;11.620;2022-09-27T03:13:27;93610.59;;;21.62;41.76
22389;BME280;11362;48.102;11.620;2022-09-27T03:15:52;93616.13;;;21.62;41.76
22389;BME280;11362;48.102;11.620;2022-09-27T03:18:17;93620.41;;;21.63;41.46
22389;BME280;11362;48.102;11.620;2022-09-27T03:20:43;93618.88;;;21.62;41.97
22389;BME280;11362;48.102;11.620;2022-09-27T03:23:08;93614.88;;;21.63;41.84
22389;BME280;11362;48.102;11.620;2022-09-27T03:25:33;93614.09;;;21.62;41.66
22389;BME280;11362;48.102;11.620;2022-09-27T03:27:59;93606.59;;;21.63;41.49
22389;BME280;11362;48.102;11.620;2022-09-27T03:30:24;93597.53;;;21.62;41.69
22389;BME280;11362;48.102;11.620;2022-09-27T03:32:49;93596.78;;;21.62;41.56
22389;BME280;11362;48.102;11.620;2022-09-27T03:35:15;93594.00;;;21.62;41.78
22389;BME280;11362;48.102;11.620;2022-09-27T03:37:40;93596.78;;;21.62;41.67
22389;BME280;11362;48.102;11.620;2022-09-27T03:40:06;93585.72;;;21.62;41.69
22389;BME280;11362;48.102;11.620;2022-09-27T03:42:32;93589.69;;;21.61;41.61
22389;BME280;11362;48.102;11.620;2022-09-27T03:44:57;93592.00;;;21.62;41.65
22389;BME280;11362;48.102;11.620;2022-09-27T03:47:22;93581.38;;;21.61;41.61
22389;BME280;11362;48.102;11.620;2022-09-27T03:49:48;93571.13;;;21.61;41.82
22389;BME280;11362;48.102;11.620;2022-09-27T03:52:14;93579.41;;;21.61;41.88
22389;BME280;11362;48.102;11.620;2022-09-27T03:54:39;93573.09;;;21.61;41.65
22389;BME280;11362;48.102;11.620;2022-09-27T03:57:04;93562.84;;;21.61;41.56
22389;BME280;11362;48.102;11.620;2022-09-27T03:59:30;93569.16;;;21.62;41.78
22389;BME280;11362;48.102;11.620;2022-09-27T04:01:55;93574.66;;;21.62;41.70
22389;BME280;11362;48.102;11.620;2022-09-27T04:04:20;93581.38;;;21.61;41.67
22389;BME280;11362;48.102;11.620;2022-09-27T04:06:46;93573.09;;;21.61;41.80
22389;BME280;11362;48.102;11.620;2022-09-27T04:09:11;93577.44;;;21.62;41.69
22389;BME280;11362;48.102;11.620;2022-09-27T04:11:36;93571.91;;;21.62;41.73
22389;BME280;11362;48.102;11.620;2022-09-27T04:14:02;93566.81;;;21.60;41.65
22389;BME280;11362;48.102;11.620;2022-09-27T04:16:27;93569.16;;;21.62;41.50
22389;BME280;11362;48.102;11.620;2022-09-27T04:18:52;93580.19;;;21.62;41.57
22389;BME280;11362;48.102;11.620;2022-09-27T04:21:18;93582.19;;;21.61;41.80
22389;BME280;11362;48.102;11.620;2022-09-27T04:23:43;93580.19;;;21.62;41.62
22389;BME280;11362;48.102;11.620;2022-09-27T04:26:08;93581.75;;;21.63;41.58
22389;BME280;11362;48.102;11.620;2022-09-27T04:28:33;93580.19;;;21.62;41.70
22389;BME280;11362;48.102;11.620;2022-09-27T04:30:59;93580.19;;;21.62;41.37
22389;BME280;11362;48.102;11.620;2022-09-27T04:33:24;93580.19;;;21.62;41.92
22389;BME280;11362;48.102;11.620;2022-09-27T04:35:49;93581.38;;;21.61;41.83
22389;BME280;11362;48.102;11.620;2022-09-27T04:38:15;93575.88;;;21.61;41.89
22389;BME280;11362;48.102;11.620;2022-09-27T04:40:40;93579.41;;;21.61;41.83
22389;BME280;11362;48.102;11.620;2022-09-27T04:43:05;93589.69;;;21.61;41.76
22389;BME280;11362;48.102;11.620;2022-09-27T04:45:31;93595.22;;;21.61;41.75
22389;BME280;11362;48.102;11.620;2022-09-27T04:47:56;93583.41;;;21.60;41.69
22389;BME280;11362;48.102;11.620;2022-09-27T04:50:22;93594.00;;;21.62;41.92
22389;BME280;11362;48.102;11.620;2022-09-27T04:52:51;93588.94;;;21.60;41.74
22389;BME280;11362;48.102;11.620;2022-09-27T04:55:19;93587.69;;;21.61;41.74
22389;BME280;11362;48.102;11.620;2022-09-27T04:57:46;93597.53;;;21.62;41.69
22389;BME280;11362;48.102;11.620;2022-09-27T05:00:11;93591.25;;;21.62;41.60
22389;BME280;11362;48.102;11.620;2022-09-27T05:02:37;93590.47;;;21.61;41.69
22389;BME280;11362;48.102;11.620;2022-09-27T05:05:02;93589.69;;;21.61;41.62
22389;BME280;11362;48.102;11.620;2022-09-27T05:07:28;93587.69;;;21.61;41.71
22389;BME280;11362;48.102;11.620;2022-09-27T05:09:54;93590.91;;;21.60;42.17
22389;BME280;11362;48.102;11.620;2022-09-27T05:12:20;93597.97;;;21.61;41.64
22389;BME280;11362;48.102;11.620;2022-09-27T05:14:45;93597.97;;;21.61;41.70
22389;BME280;11362;48.102;11.620;2022-09-27T05:17:12;93604.72;;;21.60;41.82
22389;BME280;11362;48.102;11.620;2022-09-27T05:19:37;93611.03;;;21.60;41.94
22389;BME280;11362;48.102;11.620;2022-09-27T05:22:03;93617.31;;;21.61;41.80
22389;BME280;11362;48.102;11.620;2022-09-27T05:24:28;93629.56;;;21.60;41.90
22389;BME280;11362;48.102;11.620;2022-09-27T05:26:53;93631.13;;;21.61;41.67
22389;BME280;11362;48.102;11.620;2022-09-27T05:29:19;93633.13;;;21.60;41.77
22389;BME280;11362;48.102;11.620;2022-09-27T05:31:44;93632.34;;;21.60;41.31
22389;BME280;11362;48.102;11.620;2022-09-27T05:34:10;93630.78;;;21.59;41.78
22389;BME280;11362;48.102;11.620;2022-09-27T05:36:35;93628.81;;;21.59;41.59
22389;BME280;11362;48.102;11.620;2022-09-27T05:39:00;93640.63;;;21.60;41.78
22389;BME280;11362;48.102;11.620;2022-09-27T05:41:26;93639.88;;;21.59;41.70
22389;BME280;11362;48.102;11.620;2022-09-27T05:43:51;93641.84;;;21.59;41.73
22389;BME280;11362;48.102;11.620;2022-09-27T05:46:16;93637.09;;;21.59;42.04
22389;BME280;11362;48.102;11.620;2022-09-27T05:48:42;93644.59;;;21.59;41.83
22389;BME280;11362;48.102;11.620;2022-09-27T05:51:07;93643.38;;;21.60;41.69
22389;BME280;11362;48.102;11.620;2022-09-27T05:53:32;93646.16;;;21.60;41.99
22389;BME280;11362;48.102;11.620;2022-09-27T05:56:04;93637.88;;;21.60;41.67
22389;BME280;11362;48.102;11.620;2022-09-27T05:58:31;93648.91;;;21.60;41.82
22389;BME280;11362;48.102;11.620;2022-09-27T06:00:56;93648.91;;;21.60;41.76
22389;BME280;11362;48.102;11.620;2022-09-27T06:03:21;93648.91;;;21.60;41.63
22389;BME280;11362;48.102;11.620;2022-09-27T06:05:47;93652.13;;;21.58;41.84
22389;BME280;11362;48.102;11.620;2022-09-27T06:08:12;93659.97;;;21.60;41.96
22389;BME280;11362;48.102;11.620;2022-09-27T06:10:39;93659.97;;;21.60;41.76
22389;BME280;11362;48.102;11.620;2022-09-27T06:13:07;93654.44;;;21.60;41.70
22389;BME280;11362;48.102;11.620;2022-09-27T06:15:33;93659.22;;;21.59;41.55
22389;BME280;11362;48.102;11.620;2022-09-27T06:18:13;93661.97;;;21.59;41.77
22389;BME280;11362;48.102;11.620;2022-09-27T06:20:39;93659.97;;;21.60;41.87
22389;BME280;11362;48.102;11.620;2022-09-27T06:23:18;93682.06;;;21.60;41.83
22389;BME280;11362;48.102;11.620;2022-09-27T06:25:45;93684.81;;;21.60;41.99
22389;BME280;11362;48.102;11.620;2022-09-27T06:28:11;93684.06;;;21.59;41.71
22389;BME280;11362;48.102;11.620;2022-09-27T06:30:41;93687.59;;;21.60;41.72
22389;BME280;11362;48.102;11.620;2022-09-27T06:33:09;93687.59;;;21.60;41.85
22389;BME280;11362;48.102;11.620;2022-09-27T06:35:35;93693.13;;;21.60;41.87
22389;BME280;11362;48.102;11.620;2022-09-27T06:38:05;93700.19;;;21.61;41.55
22389;BME280;11362;48.102;11.620;2022-09-27T06:40:30;93694.34;;;21.59;41.53
22389;BME280;11362;48.102;11.620;2022-09-27T06:43:07;93693.13;;;21.60;41.73
22389;BME280;11362;48.102;11.620;2022-09-27T06:45:34;93693.13;;;21.60;41.82
22389;BME280;11362;48.102;11.620;2022-09-27T06:48:01;93701.41;;;21.60;41.53
22389;BME280;11362;48.102;11.620;2022-09-27T06:50:26;93704.97;;;21.60;41.77
22389;BME280;11362;48.102;11.620;2022-09-27T06:52:51;93696.66;;;21.60;41.69
22389;BME280;11362;48.102;11.620;2022-09-27T06:55:17;93699.44;;;21.60;41.64
22389;BME280;11362;48.102;11.620;2022-09-27T06:57:42;93693.91;;;21.60;41.68
22389;BME280;11362;48.102;11.620;2022-09-27T07:00:09;93705.72;;;21.61;41.87
22389;BME280;11362;48.102;11.620;2022-09-27T07:02:35;93719.53;;;21.61;41.73
22389;BME280;11362;48.102;11.620;2022-09-27T07:05:00;93728.59;;;21.61;41.67
22389;BME280;11362;48.102;11.620;2022-09-27T07:07:27;93738.09;;;21.60;41.98
22389;BME280;11362;48.102;11.620;2022-09-27T07:09:52;93745.97;;;21.62;41.83
22389;BME280;11362;48.102;11.620;2022-09-27T07:12:18;93740.44;;;21.62;41.81
22389;BME280;11362;48.102;11.620;2022-09-27T07:14:43;93739.66;;;21.61;41.47
22389;BME280;11362;48.102;11.620;2022-09-27T07:17:08;93734.91;;;21.62;41.78
22389;BME280;11362;48.102;11.620;2022-09-27T07:19:34;93729.81;;;21.60;41.64
22389;BME280;11362;48.102;11.620;2022-09-27T07:21:59;93727.81;;;21.61;41.57
22389;BME280;11362;48.102;11.620;2022-09-27T07:24:24;93730.56;;;21.61;41.53
22389;BME280;11362;48.102;11.620;2022-09-27T07:26:49;93727.81;;;21.61;41.82
22389;BME280;11362;48.102;11.620;2022-09-27T07:29:15;93720.75;;;21.60;41.67
22389;BME280;11362;48.102;11.620;2022-09-27T07:31:40;93723.50;;;21.60;41.86
22389;BME280;11362;48.102;11.620;2022-09-27T07:34:06;93723.50;;;21.60;41.77
22389;BME280;11362;48.102;11.620;2022-09-27T07:36:31;93738.88;;;21.61;41.59
22389;BME280;11362;48.102;11.620;2022-09-27T07:38:58;93727.81;;;21.61;41.58
22389;BME280;11362;48.102;11.620;2022-09-27T07:41:23;93722.28;;;21.61;41.71
22389;BME280;11362;48.102;11.620;2022-09-27T07:43:49;93733.34;;;21.61;41.62
22389;BME280;11362;48.102;11.620;2022-09-27T07:46:14;93734.91;;;21.62;41.69
22389;BME280;11362;48.102;11.620;2022-09-27T07:48:39;93736.09;;;21.61;41.69
22389;BME280;11362;48.102;11.620;2022-09-27T07:51:05;93733.34;;;21.61;41.64
22389;BME280;11362;48.102;11.620;2022-09-27T07:53:30;93734.91;;;21.62;41.62
22389;BME280;11362;48.102;11.620;2022-09-27T07:55:55;93740.44;;;21.62;41.60
22389;BME280;11362;48.102;11.620;2022-09-27T07:58:21;93734.13;;;21.61;41.53
22389;BME280;11362;48.102;11.620;2022-09-27T08:00:46;93728.59;;;21.61;41.62
22389;BME280;11362;48.102;11.620;2022-09-27T08:03:13;93741.63;;;21.61;41.74
22389;BME280;11362;48.102;11.620;2022-09-27T08:05:39;93738.88;;;21.61;41.61
22389;BME280;11362;48.102;11.620;2022-09-27T08:08:05;93740.44;;;21.62;41.57
22389;BME280;11362;48.102;11.620;2022-09-27T08:10:33;93740.44;;;21.62;41.71
22389;BME280;11362;48.102;11.620;2022-09-27T08:13:03;93746.72;;;21.62;41.60
22389;BME280;11362;48.102;11.620;2022-09-27T08:15:33;93745.19;;;21.61;41.79
22389;BME280;11362;48.102;11.620;2022-09-27T08:17:58;93748.72;;;21.62;41.54
22389;BME280;11362;48.102;11.620;2022-09-27T08:20:24;93779.13;;;21.62;41.55
22389;BME280;11362;48.102;11.620;2022-09-27T08:22:49;93789.38;;;21.61;41.72
22389;BME280;11362;48.102;11.620;2022-09-27T08:25:14;93799.66;;;21.61;41.64
22389;BME280;11362;48.102;11.620;2022-09-27T08:27:40;93811.50;;;21.61;41.54
22389;BME280;11362;48.102;11.620;2022-09-27T08:30:06;93814.25;;;21.61;41.62
22389;BME280;11362;48.102;11.620;2022-09-27T08:32:31;93821.00;;;21.60;41.73
22389;BME280;11362;48.102;11.620;2022-09-27T08:34:57;93822.53;;;21.61;41.61
22389;BME280;11362;48.102;11.620;2022-09-27T08:37:22;93816.22;;;21.61;41.48
22389;BME280;11362;48.102;11.620;2022-09-27T08:39:47;93839.13;;;21.61;41.33
22389;BME280;11362;48.102;11.620;2022-09-27T08:42:39;93827.28;;;21.61;41.48
22389;BME280;11362;48.102;11.620;2022-09-27T08:52:46;93826.84;;;21.62;41.67
22389;BME280;11362;48.102;11.620;2022-09-27T08:55:39;93828.06;;;21.61;41.63
22389;BME280;11362;48.102;11.620;2022-09-27T08:58:15;93833.16;;;21.63;41.49
22389;BME280;11362;48.102;11.620;2022-09-27T09:00:42;93826.09;;;21.62;41.47
22389;BME280;11362;48.102;11.620;2022-09-27T09:03:17;93824.88;;;21.63;41.63
22389;BME280;11362;48.102;11.620;2022-09-27T09:05:51;93819.66;;;21.65;41.31
22389;BME280;11362;48.102;11.620;2022-09-27T09:08:32;93830.72;;;21.65;41.48
22389;BME280;11362;48.102;11.620;2022-09-27T09:16:43;93834.38;;;21.62;41.56
22389;BME280;11362;48.102;11.620;2022-09-27T09:19:34;93833.16;;;21.63;41.47
22389;BME280;11362;48.102;11.620;2022-09-27T09:22:18;93825.63;;;21.63;41.60
22389;BME280;11362;48.102;11.620;2022-09-27T09:28:03;93818.13;;;21.64;41.41
22389;BME280;11362;48.102;11.620;2022-09-27T09:31:21;93820.09;;;21.63;41.30
22389;BME280;11362;48.102;11.620;2022-09-27T09:33:39;93820.56;;;21.62;41.62
22389;BME280;11362;48.102;11.620;2022-09-27T09:38:40;93817.69;;;21.65;41.64
22389;BME280;11362;48.102;11.620;2022-09-27T09:44:09;93832.69;;;21.64;41.50
22389;BME280;11362;48.102;11.620;2022-09-27T09:46:42;93830.41;;;21.63;41.44
22389;BME280;11362;48.102;11.620;2022-09-27T09:49:45;93830.41;;;21.63;41.53
22389;BME280;11362;48.102;11.620;2022-09-27T09:52:17;93842.22;;;21.63;41.49
22389;BME280;11362;48.102;11.620;2022-09-27T09:54:55;93833.16;;;21.63;41.56
22389;BME280;11362;48.102;11.620;2022-09-27T09:57:26;93838.69;;;21.63;41.52
22389;BME280;11362;48.102;11.620;2022-09-27T10:00:22;93839.91;;;21.62;41.56
22389;BME280;11362;48.102;11.620;2022-09-27T10:02:48;93837.47;;;21.64;41.60
22389;BME280;11362;48.102;11.620;2022-09-27T10:05:20;93852.50;;;21.63;41.40
22389;BME280;11362;48.102;11.620;2022-09-27T10:07:48;93851.28;;;21.64;41.28
22389;BME280;11362;48.102;11.620;2022-09-27T10:10:16;93856.81;;;21.64;41.48
22389;BME280;11362;48.102;11.620;2022-09-27T10:12:43;93851.28;;;21.64;41.51
22389;BME280;11362;48.102;11.620;2022-09-27T10:15:13;93863.56;;;21.63;41.47
22389;BME280;11362;48.102;11.620;2022-09-27T10:17:41;93867.53;;;21.62;41.36
22389;BME280;11362;48.102;11.620;2022-09-27T10:22:48;93871.84;;;21.63;41.45
22389;BME280;11362;48.102;11.620;2022-09-27T10:25:17;93869.09;;;21.63;41.63
22389;BME280;11362;48.102;11.620;2022-09-27T10:27:47;93876.59;;;21.62;41.49
22389;BME280;11362;48.102;11.620;2022-09-27T10:30:40;93880.13;;;21.63;41.54
22389;BME280;11362;48.102;11.620;2022-09-27T10:33:14;93889.19;;;21.63;41.43
22389;BME280;11362;48.102;11.620;2022-09-27T10:35:42;93887.19;;;21.64;41.45
22389;BME280;11362;48.102;11.620;2022-09-27T10:40:43;93899.00;;;21.64;41.23
22389;BME280;11362;48.102;11.620;2022-09-27T10:43:28;93892.72;;;21.64;41.45
22389;BME280;11362;48.102;11.620;2022-09-27T10:45:59;93900.69;;;21.62;41.89
22389;BME280;11362;48.102;11.620;2022-09-27T10:48:27;93899.47;;;21.63;41.44
22389;BME280;11362;48.102;11.620;2022-09-27T10:53:22;93902.25;;;21.63;41.24
22389;BME280;11362;48.102;11.620;2022-09-27T10:55:50;93883.31;;;21.61;41.69
22389;BME280;11362;48.102;11.620;2022-09-27T10:58:36;93890.41;;;21.62;41.65
22389;BME280;11362;48.102;11.620;2022-09-27T11:01:05;93885.66;;;21.63;41.37
22389;BME280;11362;48.102;11.620;2022-09-27T11:03:35;93884.88;;;21.62;41.62
22389;BME280;11362;48.102;11.620;2022-09-27T11:08:52;93882.44;;;21.64;41.38
22389;BME280;11362;48.102;11.620;2022-09-27T11:11:26;93885.19;;;21.64;41.59
22389;BME280;11362;48.102;11.620;2022-09-27T11:14:00;93890.72;;;21.64;41.47
22389;BME280;11362;48.102;11.620;2022-09-27T11:35:36;93892.66;;;21.67;41.26
22389;BME280;11362;48.102;11.620;2022-09-27T11:41:08;93884.00;;;21.65;41.44
22389;BME280;11362;48.102;11.620;2022-09-27T12:00:07;93857.16;;;21.66;41.55
22389;BME280;11362;48.102;11.620;2022-09-27T12:05:48;93852.44;;;21.66;41.56
22389;BME280;11362;48.102;11.620;2022-09-27T12:08:51;93848.88;;;21.66;41.36
22389;BME280;11362;48.102;11.620;2022-09-27T12:11:26;93829.53;;;21.66;41.27
22389;BME280;11362;48.102;11.620;2022-09-27T12:14:01;93832.31;;;21.66;41.38
22389;BME280;11362;48.102;11.620;2022-09-27T12:16:30;93840.59;;;21.66;41.46
22389;BME280;11362;48.102;11.620;2022-09-27T12:18:58;93827.97;;;21.65;41.32
22389;BME280;11362;48.102;11.620;2022-09-27T12:21:24;93828.31;;;21.67;41.18
22389;BME280;11362;48.102;11.620;2022-09-27T12:23:55;93821.25;;;21.66;41.32
22389;BME280;11362;48.102;11.620;2022-09-27T12:26:38;93831.09;;;21.67;41.43
22389;BME280;11362;48.102;11.620;2022-09-27T12:29:17;93837.28;;;21.71;41.38
22389;BME280;11362;48.102;11.620;2022-09-27T12:31:56;93837.28;;;21.71;41.34
22389;BME280;11362;48.102;11.620;2022-09-27T12:34:31;93844.38;;;21.72;41.10
22389;BME280;11362;48.102;11.620;2022-09-27T12:37:09;93842.81;;;21.71;41.20
22389;BME280;11362;48.102;11.620;2022-09-27T12:39:45;93835.75;;;21.70;41.33
22389;BME280;11362;48.102;11.620;2022-09-27T12:42:30;93842.03;;;21.70;41.36
22389;BME280;11362;48.102;11.620;2022-09-27T12:44:56;93834.53;;;21.71;41.48
22389;BME280;11362;48.102;11.620;2022-09-27T12:47:31;93831.78;;;21.71;41.28
22389;BME280;11362;48.102;11.620;2022-09-27T12:50:35;93830.97;;;21.70;41.14
22389;BME280;11362;48.102;11.620;2022-09-27T12:53:14;93827.00;;;21.71;41.51
22389;BME280;11362;48.102;11.620;2022-09-27T12:58:41;93834.53;;;21.71;41.54
22389;BME280;11362;48.102;11.620;2022-09-27T13:05:01;93821.38;;;21.75;41.21
22389;BME280;11362;48.102;11.620;2022-09-27T13:07:49;93818.28;;;21.73;41.34
22389;BME280;11362;48.102;11.620;2022-09-27T13:12:58;93827.34;;;21.73;41.19
22389;BME280;11362;48.102;11.620;2022-09-27T13:15:32;93811.22;;;21.72;41.32
22389;BME280;11362;48.102;11.620;2022-09-27T13:18:00;93832.09;;;21.73;41.20
22389;BME280;11362;48.102;11.620;2022-09-27T13:25:48;93822.94;;;21.76;41.19
22389;BME280;11362;48.102;11.620;2022-09-27T13:30:56;93839.84;;;21.78;41.21
22389;BME280;11362;48.102;11.620;2022-09-27T13:33:28;93834.00;;;21.76;41.20
22389;BME280;11362;48.102;11.620;2022-09-27T13:41:20;93827.34;;;21.73;41.33
22389;BME280;11362;48.102;11.620;2022-09-27T13:44:04;93832.53;;;21.71;41.27
22389;BME280;11362;48.102;11.620;2022-09-27T13:46:33;93816.72;;;21.72;41.23
22389;BME280;11362;48.102;11.620;2022-09-27T13:49:28;93825.03;;;21.72;41.22
22389;BME280;11362;48.102;11.620;2022-09-27T13:52:00;93835.28;;;21.71;41.22
22389;BME280;11362;48.102;11.620;2022-09-27T13:56:59;93842.81;;;21.71;41.09
22389;BME280;11362;48.102;11.620;2022-09-27T13:59:44;93850.31;;;21.70;41.09
22389;BME280;11362;48.102;11.620;2022-09-27T14:02:18;93844.03;;;21.70;41.04
22389;BME280;11362;48.102;11.620;2022-09-27T14:04:48;93857.84;;;21.70;40.97
22389;BME280;11362;48.102;11.620;2022-09-27T14:07:17;93855.53;;;21.68;40.93
22389;BME280;11362;48.102;11.620;2022-09-27T14:09:47;93850.78;;;21.69;41.58
22389;BME280;11362;48.102;11.620;2022-09-27T14:12:32;93848.03;;;21.69;40.97
22389;BME280;11362;48.102;11.620;2022-09-27T14:14:58;93837.72;;;21.69;41.03
22389;BME280;11362;48.102;11.620;2022-09-27T14:17:25;93851.13;;;21.71;41.20
22389;BME280;11362;48.102;11.620;2022-09-27T14:19:51;93853.88;;;21.71;41.02
22389;BME280;11362;48.102;11.620;2022-09-27T14:22:18;93862.94;;;21.71;41.08
22389;BME280;11362;48.102;11.620;2022-09-27T14:24:47;93864.94;;;21.71;40.96
22389;BME280;11362;48.102;11.620;2022-09-27T14:27:20;93853.88;;;21.71;41.05
22389;BME280;11362;48.102;11.620;2022-09-27T14:29:57;93868.44;;;21.71;41.08
22389;BME280;11362;48.102;11.620;2022-09-27T14:32:25;93864.72;;;21.78;40.98
22389;BME280;11362;48.102;11.620;2022-09-27T14:35:14;93867.63;;;21.87;40.67
22389;BME280;11362;48.102;11.620;2022-09-27T14:37:40;93873.81;;;21.91;40.56
22389;BME280;11362;48.102;11.620;2022-09-27T14:40:16;93875.38;;;21.92;40.63
22389;BME280;11362;48.102;11.620;2022-09-27T14:42:42;93878.47;;;21.94;40.42
22389;BME280;11362;48.102;11.620;2022-09-27T14:45:20;93874.59;;;21.91;40.19
22389;BME280;11362;48.102;11.620;2022-09-27T14:47:48;93860.88;;;21.88;40.63
22389;BME280;11362;48.102;11.620;2022-09-27T14:50:26;93866.50;;;21.84;40.67
22389;BME280;11362;48.102;11.620;2022-09-27T14:52:51;93866.16;;;21.82;40.77
22389;BME280;11362;48.102;11.620;2022-09-27T14:55:19;93866.16;;;21.82;40.83
22389;BME280;11362;48.102;11.620;2022-09-27T14:57:51;93867.81;;;21.80;40.70
22389;BME280;11362;48.102;11.620;2022-09-27T15:00:22;93872.59;;;21.79;40.49
22389;BME280;11362;48.102;11.620;2022-09-27T15:02:50;93873.00;;;21.78;40.63
22389;BME280;11362;48.102;11.620;2022-09-27T15:05:17;93874.22;;;21.77;40.83
22389;BME280;11362;48.102;11.620;2022-09-27T15:07:45;93868.72;;;21.77;40.76
22389;BME280;11362;48.102;11.620;2022-09-27T15:10:19;93867.16;;;21.76;40.71
22389;BME280;11362;48.102;11.620;2022-09-27T15:12:48;93864.81;;;21.74;40.63
22389;BME280;11362;48.102;11.620;2022-09-27T15:15:20;93860.06;;;21.75;40.65
22389;BME280;11362;48.102;11.620;2022-09-27T15:17:46;93856.88;;;21.76;40.53